sensor_id;sensor_type;location;lat;lon;timestamp;pressure;altitude;pressure_sealevel;temperature;humidity
74346;BME280;62776;50.518;6.732;2023-03-23T00:02:29;95537.09;;;10.86;100.00
74346;BME280;62776;50.518;6.732;2023-03-23T00:05:15;95540.50;;;10.88;100.00
74346;BME280;62776;50.518;6.732;2023-03-23T00:08:02;95526.59;;;10.90;100.00
74346;BME280;62776;50.518;6.732;2023-03-23T00:10:52;95527.56;;;10.86;100.00
74346;BME280;62776;50.518;6.732;2023-03-23T00:13:43;95524.00;;;10.90;100.00
74346;BME280;62776;50.518;6.732;2023-03-23T00:16:37;95532.69;;;10.89;100.00
74346;BME280;62776;50.518;6.732;2023-03-23T00:19:27;95536.88;;;10.93;100.00
74346;BME280;62776;50.518;6.732;2023-03-23T00:22:15;95518.69;;;10.93;100.00
74346;BME280;62776;50.518;6.732;2023-03-23T00:25:03;95518.56;;;10.98;100.00
74346;BME280;62776;50.518;6.732;2023-03-23T00:27:49;95534.13;;;10.99;100.00
74346;BME280;62776;50.518;6.732;2023-03-23T00:30:35;95525.44;;;11.00;100.00
74346;BME280;62776;50.518;6.732;2023-03-23T00:33:26;95523.78;;;10.98;100.00
74346;BME280;62776;50.518;6.732;2023-03-23T00:36:13;95517.84;;;10.93;100.00
74346;BME280;62776;50.518;6.732;2023-03-23T00:39:03;95519.84;;;10.83;100.00
74346;BME280;62776;50.518;6.732;2023-03-23T00:41:51;95524.16;;;10.84;100.00
74346;BME280;62776;50.518;6.732;2023-03-23T00:44:37;95523.31;;;10.84;100.00
74346;BME280;62776;50.518;6.732;2023-03-23T00:47:25;95517.09;;;10.88;100.00
74346;BME280;62776;50.518;6.732;2023-03-23T00:50:13;95517.25;;;10.83;100.00
74346;BME280;62776;50.518;6.732;2023-03-23T00:53:01;95506.75;;;10.86;100.00
74346;BME280;62776;50.518;6.732;2023-03-23T00:55:48;95509.53;;;10.80;100.00
74346;BME280;62776;50.518;6.732;2023-03-23T00:58:36;95496.53;;;10.80;100.00
74346;BME280;62776;50.518;6.732;2023-03-23T01:01:23;95489.81;;;10.73;100.00
74346;BME280;62776;50.518;6.732;2023-03-23T01:04:09;95505.41;;;10.73;100.00
74346;BME280;62776;50.518;6.732;2023-03-23T01:06:58;95495.81;;;10.75;100.00
74346;BME280;62776;50.518;6.732;2023-03-23T01:09:47;95486.34;;;10.73;100.00
74346;BME280;62776;50.518;6.732;2023-03-23T01:12:34;95476.81;;;10.73;100.00
74346;BME280;62776;50.518;6.732;2023-03-23T01:15:21;95472.59;;;10.69;100.00
74346;BME280;62776;50.518;6.732;2023-03-23T01:18:09;95463.06;;;10.70;100.00
74346;BME280;62776;50.518;6.732;2023-03-23T01:21:12;95461.63;;;10.59;100.00
74346;BME280;62776;50.518;6.732;2023-03-23T01:23:59;95455.47;;;10.62;100.00
74346;BME280;62776;50.518;6.732;2023-03-23T01:26:47;95455.47;;;10.62;100.00
74346;BME280;62776;50.518;6.732;2023-03-23T01:29:34;95441.06;;;10.52;100.00
74346;BME280;62776;50.518;6.732;2023-03-23T01:32:20;95447.13;;;10.51;100.00
74346;BME280;62776;50.518;6.732;2023-03-23T01:35:08;95462.72;;;10.51;100.00
74346;BME280;62776;50.518;6.732;2023-03-23T01:37:57;95455.88;;;10.47;100.00
74346;BME280;62776;50.518;6.732;2023-03-23T01:40:44;95471.41;;;10.50;100.00
74346;BME280;62776;50.518;6.732;2023-03-23T01:43:30;95464.50;;;10.49;100.00
74346;BME280;62776;50.518;6.732;2023-03-23T01:46:27;95458.53;;;10.45;100.00
74346;BME280;62776;50.518;6.732;2023-03-23T01:49:19;95480.25;;;10.43;100.00
74346;BME280;62776;50.518;6.732;2023-03-23T01:52:26;95491.75;;;10.34;100.00
74346;BME280;62776;50.518;6.732;2023-03-23T01:55:15;95483.81;;;10.39;100.00
74346;BME280;62776;50.518;6.732;2023-03-23T01:58:03;95488.28;;;10.34;100.00
74346;BME280;62776;50.518;6.732;2023-03-23T02:00:51;95485.03;;;10.27;100.00
74346;BME280;62776;50.518;6.732;2023-03-23T02:03:44;95493.06;;;10.17;100.00
74346;BME280;62776;50.518;6.732;2023-03-23T02:06:32;95487.13;;;10.13;100.00
74346;BME280;62776;50.518;6.732;2023-03-23T02:09:21;95469.88;;;10.09;100.00
74346;BME280;62776;50.518;6.732;2023-03-23T02:12:09;95470.88;;;10.03;100.00
74346;BME280;62776;50.518;6.732;2023-03-23T02:14:55;95454.63;;;9.97;100.00
74346;BME280;62776;50.518;6.732;2023-03-23T02:17:51;95447.94;;;9.87;100.00
74346;BME280;62776;50.518;6.732;2023-03-23T02:27:03;95451.69;;;9.75;100.00
74346;BME280;62776;50.518;6.732;2023-03-23T02:33:07;95464.66;;;9.75;100.00
74346;BME280;62776;50.518;6.732;2023-03-23T02:41:52;95430.06;;;9.76;100.00
74346;BME280;62776;50.518;6.732;2023-03-23T02:44:43;95440.34;;;9.79;100.00
74346;BME280;62776;50.518;6.732;2023-03-23T02:47:32;95429.03;;;9.82;100.00
74346;BME280;62776;50.518;6.732;2023-03-23T02:50:24;95447.22;;;9.82;100.00
74346;BME280;62776;50.518;6.732;2023-03-23T02:53:13;95448.06;;;9.82;100.00
74346;BME280;62776;50.518;6.732;2023-03-23T02:56:04;95444.50;;;9.86;100.00
74346;BME280;62776;50.518;6.732;2023-03-23T02:58:55;95453.13;;;9.88;100.00
74346;BME280;62776;50.518;6.732;2023-03-23T03:04:30;95442.59;;;9.93;100.00
74346;BME280;62776;50.518;6.732;2023-03-23T03:07:59;95430.69;;;9.86;100.00
74346;BME280;62776;50.518;6.732;2023-03-23T03:20:03;95363.00;;;9.93;100.00
74346;BME280;62776;50.518;6.732;2023-03-23T03:22:59;95367.19;;;9.97;100.00
74346;BME280;62776;50.518;6.732;2023-03-23T03:25:49;95389.59;;;10.01;100.00
74346;BME280;62776;50.518;6.732;2023-03-23T03:28:36;95399.00;;;10.05;100.00
74346;BME280;62776;50.518;6.732;2023-03-23T03:31:27;95398.25;;;10.00;100.00
74346;BME280;62776;50.518;6.732;2023-03-23T03:34:16;95396.50;;;10.02;100.00
74346;BME280;62776;50.518;6.732;2023-03-23T03:37:04;95410.13;;;10.11;100.00
74346;BME280;62776;50.518;6.732;2023-03-23T03:39:51;95415.25;;;10.14;100.00
74346;BME280;62776;50.518;6.732;2023-03-23T03:42:39;95427.34;;;10.15;100.00
74346;BME280;62776;50.518;6.732;2023-03-23T03:45:26;95436.88;;;10.14;100.00
74346;BME280;62776;50.518;6.732;2023-03-23T03:48:13;95435.13;;;10.16;100.00
74346;BME280;62776;50.518;6.732;2023-03-23T03:51:00;95427.28;;;10.18;100.00
74346;BME280;62776;50.518;6.732;2023-03-23T03:53:49;95407.34;;;10.18;100.00
74346;BME280;62776;50.518;6.732;2023-03-23T03:56:35;95420.34;;;10.18;100.00
74346;BME280;62776;50.518;6.732;2023-03-23T03:59:25;95394.44;;;10.15;100.00
74346;BME280;62776;50.518;6.732;2023-03-23T04:02:12;95403.03;;;10.19;100.00
74346;BME280;62776;50.518;6.732;2023-03-23T04:05:03;95405.63;;;10.17;100.00
74346;BME280;62776;50.518;6.732;2023-03-23T04:07:50;95400.38;;;10.20;100.00
74346;BME280;62776;50.518;6.732;2023-03-23T04:10:37;95405.53;;;10.22;100.00
74346;BME280;62776;50.518;6.732;2023-03-23T04:13:23;95412.31;;;10.27;100.00
74346;BME280;62776;50.518;6.732;2023-03-23T04:16:12;95414.84;;;10.29;100.00
74346;BME280;62776;50.518;6.732;2023-03-23T04:18:59;95419.03;;;10.34;100.00
74346;BME280;62776;50.518;6.732;2023-03-23T04:21:47;95430.22;;;10.36;100.00
74346;BME280;62776;50.518;6.732;2023-03-23T04:24:37;95439.75;;;10.36;100.00
74346;BME280;62776;50.518;6.732;2023-03-23T04:27:25;95451.78;;;10.38;100.00
74346;BME280;62776;50.518;6.732;2023-03-23T04:30:15;95441.28;;;10.43;100.00
74346;BME280;62776;50.518;6.732;2023-03-23T04:33:03;95436.88;;;10.46;100.00
74346;BME280;62776;50.518;6.732;2023-03-23T04:35:49;95436.91;;;10.45;100.00
74346;BME280;62776;50.518;6.732;2023-03-23T04:38:36;95436.03;;;10.46;100.00
74346;BME280;62776;50.518;6.732;2023-03-23T04:41:23;95443.84;;;10.44;100.00
74346;BME280;62776;50.518;6.732;2023-03-23T04:44:14;95448.31;;;10.39;100.00
74346;BME280;62776;50.518;6.732;2023-03-23T04:47:07;95451.59;;;10.46;100.00
74346;BME280;62776;50.518;6.732;2023-03-23T04:49:56;95451.75;;;10.40;100.00
74346;BME280;62776;50.518;6.732;2023-03-23T04:52:44;95462.19;;;10.38;100.00
74346;BME280;62776;50.518;6.732;2023-03-23T04:55:32;95465.63;;;10.39;100.00
74346;BME280;62776;50.518;6.732;2023-03-23T04:58:24;95476.09;;;10.36;100.00
74346;BME280;62776;50.518;6.732;2023-03-23T05:01:12;95471.81;;;10.35;100.00
74346;BME280;62776;50.518;6.732;2023-03-23T05:04:03;95461.59;;;10.29;100.00
74346;BME280;62776;50.518;6.732;2023-03-23T05:06:51;95457.28;;;10.28;100.00
74346;BME280;62776;50.518;6.732;2023-03-23T05:09:37;95456.47;;;10.26;100.00
74346;BME280;62776;50.518;6.732;2023-03-23T05:12:26;95454.09;;;10.18;100.00
74346;BME280;62776;50.518;6.732;2023-03-23T05:15:15;95457.63;;;10.16;100.00
74346;BME280;62776;50.518;6.732;2023-03-23T05:18:02;95450.72;;;10.15;100.00
74346;BME280;62776;50.518;6.732;2023-03-23T05:20:49;95460.34;;;10.09;100.00
74346;BME280;62776;50.518;6.732;2023-03-23T05:23:39;95457.00;;;10.04;100.00
74346;BME280;62776;50.518;6.732;2023-03-23T05:26:28;95465.69;;;10.03;100.00
74346;BME280;62776;50.518;6.732;2023-03-23T05:29:24;95480.53;;;9.98;100.00
74346;BME280;62776;50.518;6.732;2023-03-23T05:32:13;95476.84;;;10.07;100.00
74346;BME280;62776;50.518;6.732;2023-03-23T05:35:05;95475.88;;;10.11;100.00
74346;BME280;62776;50.518;6.732;2023-03-23T05:37:53;95484.56;;;10.10;100.00
74346;BME280;62776;50.518;6.732;2023-03-23T05:40:43;95483.59;;;10.14;100.00
74346;BME280;62776;50.518;6.732;2023-03-23T05:43:29;95465.44;;;10.14;100.00
74346;BME280;62776;50.518;6.732;2023-03-23T05:46:16;95475.81;;;10.16;100.00
74346;BME280;62776;50.518;6.732;2023-03-23T05:49:02;95481.00;;;10.16;100.00
74346;BME280;62776;50.518;6.732;2023-03-23T05:51:49;95477.41;;;10.20;100.00
74346;BME280;62776;50.518;6.732;2023-03-23T05:54:40;95480.84;;;10.22;100.00
74346;BME280;62776;50.518;6.732;2023-03-23T05:57:30;95478.25;;;10.20;100.00
74346;BME280;62776;50.518;6.732;2023-03-23T06:00:16;95482.53;;;10.23;100.00
74346;BME280;62776;50.518;6.732;2023-03-23T06:03:10;95473.84;;;10.24;100.00
74346;BME280;62776;50.518;6.732;2023-03-23T06:06:10;95479.13;;;10.21;100.00
74346;BME280;62776;50.518;6.732;2023-03-23T06:08:57;95457.19;;;10.32;100.00
74346;BME280;62776;50.518;6.732;2023-03-23T06:11:46;95456.16;;;10.38;100.00
74346;BME280;62776;50.518;6.732;2023-03-23T06:14:33;95464.91;;;10.34;100.00
74346;BME280;62776;50.518;6.732;2023-03-23T06:17:25;95465.69;;;10.37;100.00
74346;BME280;62776;50.518;6.732;2023-03-23T06:20:18;95482.13;;;10.38;100.00
74346;BME280;62776;50.518;6.732;2023-03-23T06:23:04;95488.16;;;10.38;100.00
74346;BME280;62776;50.518;6.732;2023-03-23T06:25:57;95481.19;;;10.40;100.00
74346;BME280;62776;50.518;6.732;2023-03-23T06:28:48;95481.13;;;10.43;100.00
74346;BME280;62776;50.518;6.732;2023-03-23T06:31:51;95475.16;;;10.40;100.00
74346;BME280;62776;50.518;6.732;2023-03-23T06:34:39;95479.97;;;10.53;100.00
74346;BME280;62776;50.518;6.732;2023-03-23T06:37:29;95476.47;;;10.54;100.00
74346;BME280;62776;50.518;6.732;2023-03-23T06:40:16;95488.47;;;10.58;100.00
74346;BME280;62776;50.518;6.732;2023-03-23T06:43:06;95499.72;;;10.59;100.00
74346;BME280;62776;50.518;6.732;2023-03-23T06:45:53;95509.06;;;10.66;100.00
74346;BME280;62776;50.518;6.732;2023-03-23T06:48:45;95495.19;;;10.67;100.00
74346;BME280;62776;50.518;6.732;2023-03-23T06:51:35;95512.34;;;10.73;100.00
74346;BME280;62776;50.518;6.732;2023-03-23T06:54:23;95525.13;;;10.80;100.00
74346;BME280;62776;50.518;6.732;2023-03-23T06:57:11;95517.25;;;10.83;100.00
74346;BME280;62776;50.518;6.732;2023-03-23T06:59:59;95510.34;;;10.82;100.00
74346;BME280;62776;50.518;6.732;2023-03-23T07:02:46;95523.13;;;10.90;100.00
74346;BME280;62776;50.518;6.732;2023-03-23T07:05:46;95520.41;;;10.94;100.00
74346;BME280;62776;50.518;6.732;2023-03-23T07:08:35;95511.72;;;10.95;100.00
74346;BME280;62776;50.518;6.732;2023-03-23T07:11:23;95508.19;;;10.96;100.00
74346;BME280;62776;50.518;6.732;2023-03-23T07:14:11;95516.75;;;11.01;100.00
74346;BME280;62776;50.518;6.732;2023-03-23T07:16:58;95520.78;;;11.11;100.00
74346;BME280;62776;50.518;6.732;2023-03-23T07:19:46;95529.19;;;11.19;100.00
74346;BME280;62776;50.518;6.732;2023-03-23T07:22:33;95520.41;;;11.23;100.00
74346;BME280;62776;50.518;6.732;2023-03-23T07:25:27;95524.72;;;11.24;100.00
74346;BME280;62776;50.518;6.732;2023-03-23T07:28:13;95525.41;;;11.31;100.00
74346;BME280;62776;50.518;6.732;2023-03-23T07:31:07;95524.38;;;11.37;100.00
74346;BME280;62776;50.518;6.732;2023-03-23T07:33:54;95521.69;;;11.40;100.00
74346;BME280;62776;50.518;6.732;2023-03-23T07:36:47;95518.94;;;11.43;100.00
74346;BME280;62776;50.518;6.732;2023-03-23T07:39:33;95524.91;;;11.48;100.00
74346;BME280;62776;50.518;6.732;2023-03-23T07:42:20;95516.94;;;11.52;100.00
74346;BME280;62776;50.518;6.732;2023-03-23T07:45:07;95518.50;;;11.58;100.00
74346;BME280;62776;50.518;6.732;2023-03-23T07:47:54;95511.50;;;11.60;100.00
74346;BME280;62776;50.518;6.732;2023-03-23T07:50:41;95509.66;;;11.63;100.00
74346;BME280;62776;50.518;6.732;2023-03-23T07:53:29;95514.78;;;11.65;100.00
74346;BME280;62776;50.518;6.732;2023-03-23T07:56:21;95512.84;;;11.73;100.00
74346;BME280;62776;50.518;6.732;2023-03-23T07:59:08;95514.53;;;11.75;100.00
74346;BME280;62776;50.518;6.732;2023-03-23T08:01:55;95510.91;;;11.79;100.00
74346;BME280;62776;50.518;6.732;2023-03-23T08:04:56;95521.16;;;11.84;100.00
74346;BME280;62776;50.518;6.732;2023-03-23T08:07:43;95526.19;;;11.90;100.00
74346;BME280;62776;50.518;6.732;2023-03-23T08:10:30;95540.00;;;11.92;100.00
74346;BME280;62776;50.518;6.732;2023-03-23T08:13:17;95526.00;;;11.96;100.00
74346;BME280;62776;50.518;6.732;2023-03-23T08:16:13;95527.84;;;11.93;100.00
74346;BME280;62776;50.518;6.732;2023-03-23T08:19:04;95538.41;;;11.88;100.00
74346;BME280;62776;50.518;6.732;2023-03-23T08:21:51;95532.41;;;11.86;100.00
74346;BME280;62776;50.518;6.732;2023-03-23T08:24:43;95539.50;;;11.81;100.00
74346;BME280;62776;50.518;6.732;2023-03-23T08:27:33;95536.13;;;11.77;100.00
74346;BME280;62776;50.518;6.732;2023-03-23T08:30:22;95530.88;;;11.79;100.00
74346;BME280;62776;50.518;6.732;2023-03-23T08:33:09;95536.91;;;11.81;100.00
74346;BME280;62776;50.518;6.732;2023-03-23T08:36:04;95541.09;;;11.85;100.00
74346;BME280;62776;50.518;6.732;2023-03-23T08:38:54;95543.59;;;11.88;100.00
74346;BME280;62776;50.518;6.732;2023-03-23T08:41:48;95547.00;;;11.90;100.00
74346;BME280;62776;50.518;6.732;2023-03-23T08:44:35;95545.06;;;11.97;100.00
74346;BME280;62776;50.518;6.732;2023-03-23T08:47:29;95548.53;;;11.97;100.00
74346;BME280;62776;50.518;6.732;2023-03-23T08:50:17;95547.53;;;12.01;100.00
74346;BME280;62776;50.518;6.732;2023-03-23T08:53:04;95557.81;;;12.06;100.00
74346;BME280;62776;50.518;6.732;2023-03-23T08:55:50;95555.16;;;12.07;100.00
74346;BME280;62776;50.518;6.732;2023-03-23T08:58:37;95560.44;;;12.04;100.00
74346;BME280;62776;50.518;6.732;2023-03-23T09:01:25;95565.00;;;11.98;100.00
74346;BME280;62776;50.518;6.732;2023-03-23T09:04:14;95564.50;;;11.87;100.00
74346;BME280;62776;50.518;6.732;2023-03-23T09:07:01;95568.03;;;11.84;100.00
74346;BME280;62776;50.518;6.732;2023-03-23T09:09:48;95560.81;;;11.92;100.00
74346;BME280;62776;50.518;6.732;2023-03-23T09:12:37;95578.97;;;11.95;100.00
74346;BME280;62776;50.518;6.732;2023-03-23T09:15:24;95578.97;;;11.95;100.00
74346;BME280;62776;50.518;6.732;2023-03-23T09:18:10;95577.63;;;11.83;100.00
74346;BME280;62776;50.518;6.732;2023-03-23T09:21:07;95582.84;;;11.82;100.00
74346;BME280;62776;50.518;6.732;2023-03-23T09:23:54;95574.84;;;11.88;100.00
74346;BME280;62776;50.518;6.732;2023-03-23T09:26:44;95587.81;;;11.90;100.00
74346;BME280;62776;50.518;6.732;2023-03-23T09:29:31;95578.25;;;11.90;100.00
74346;BME280;62776;50.518;6.732;2023-03-23T09:32:23;95567.72;;;11.95;100.00
74346;BME280;62776;50.518;6.732;2023-03-23T09:35:11;95553.53;;;12.03;100.00
74346;BME280;62776;50.518;6.732;2023-03-23T09:37:58;95569.81;;;12.10;100.00
74346;BME280;62776;50.518;6.732;2023-03-23T09:40:50;95571.09;;;12.24;100.00
74346;BME280;62776;50.518;6.732;2023-03-23T09:47:19;95578.13;;;12.47;100.00
74346;BME280;62776;50.518;6.732;2023-03-23T09:50:15;95569.03;;;12.60;100.00
74346;BME280;62776;50.518;6.732;2023-03-23T09:53:15;95582.28;;;12.53;100.00
74346;BME280;62776;50.518;6.732;2023-03-23T09:56:13;95583.34;;;12.47;100.00
74346;BME280;62776;50.518;6.732;2023-03-23T09:59:09;95569.53;;;12.45;100.00
74346;BME280;62776;50.518;6.732;2023-03-23T10:02:14;95562.81;;;12.38;100.00
74346;BME280;62776;50.518;6.732;2023-03-23T10:08:17;95569.13;;;12.31;100.00
74346;BME280;62776;50.518;6.732;2023-03-23T10:17:14;95565.84;;;12.51;100.00
74346;BME280;62776;50.518;6.732;2023-03-23T10:25:58;95582.59;;;12.70;100.00
74346;BME280;62776;50.518;6.732;2023-03-23T10:28:58;95581.72;;;12.69;100.00
74346;BME280;62776;50.518;6.732;2023-03-23T10:32:09;95584.00;;;12.54;100.00
74346;BME280;62776;50.518;6.732;2023-03-23T10:35:00;95591.72;;;12.57;100.00
74346;BME280;62776;50.518;6.732;2023-03-23T10:37:55;95601.09;;;12.62;100.00
74346;BME280;62776;50.518;6.732;2023-03-23T10:40:58;95594.53;;;12.51;100.00
74346;BME280;62776;50.518;6.732;2023-03-23T10:43:46;95602.06;;;12.60;100.00
74346;BME280;62776;50.518;6.732;2023-03-23T10:49:54;95599.75;;;12.51;100.00
74346;BME280;62776;50.518;6.732;2023-03-23T10:52:51;95601.94;;;12.63;100.00
74346;BME280;62776;50.518;6.732;2023-03-23T10:55:41;95600.72;;;12.73;100.00
74346;BME280;62776;50.518;6.732;2023-03-23T10:58:36;95603.03;;;12.82;100.00
74346;BME280;62776;50.518;6.732;2023-03-23T11:01:33;95607.47;;;12.54;100.00
74346;BME280;62776;50.518;6.732;2023-03-23T11:04:26;95600.75;;;12.47;100.00
74346;BME280;62776;50.518;6.732;2023-03-23T11:07:26;95606.97;;;12.42;100.00
74346;BME280;62776;50.518;6.732;2023-03-23T11:10:25;95595.97;;;12.59;100.00
74346;BME280;62776;50.518;6.732;2023-03-23T11:13:16;95596.63;;;12.66;100.00
74346;BME280;62776;50.518;6.732;2023-03-23T11:16:07;95590.13;;;12.77;100.00
74346;BME280;62776;50.518;6.732;2023-03-23T11:18:58;95595.84;;;12.88;100.00
74346;BME280;62776;50.518;6.732;2023-03-23T11:21:51;95602.72;;;12.91;100.00
74346;BME280;62776;50.518;6.732;2023-03-23T11:24:43;95599.38;;;12.87;100.00
74346;BME280;62776;50.518;6.732;2023-03-23T11:27:33;95594.28;;;12.83;100.00
74346;BME280;62776;50.518;6.732;2023-03-23T11:30:26;95598.78;;;12.79;100.00
74346;BME280;62776;50.518;6.732;2023-03-23T11:33:14;95586.53;;;12.81;100.00
74346;BME280;62776;50.518;6.732;2023-03-23T11:36:02;95585.78;;;12.78;100.00
74346;BME280;62776;50.518;6.732;2023-03-23T11:38:52;95594.72;;;12.71;100.00
74346;BME280;62776;50.518;6.732;2023-03-23T11:41:42;95582.59;;;12.70;100.00
74346;BME280;62776;50.518;6.732;2023-03-23T11:44:34;95570.41;;;12.70;100.00
74346;BME280;62776;50.518;6.732;2023-03-23T11:47:36;95592.81;;;12.76;100.00
74346;BME280;62776;50.518;6.732;2023-03-23T11:50:28;95581.63;;;12.97;100.00
74346;BME280;62776;50.518;6.732;2023-03-23T11:56:42;95589.84;;;13.11;100.00
74346;BME280;62776;50.518;6.732;2023-03-23T11:59:35;95591.94;;;13.26;100.00
74346;BME280;62776;50.518;6.732;2023-03-23T12:02:50;95589.22;;;13.29;98.80
74346;BME280;62776;50.518;6.732;2023-03-23T12:06:05;95585.78;;;13.27;99.51
74346;BME280;62776;50.518;6.732;2023-03-23T12:09:05;95592.53;;;13.33;97.54
74346;BME280;62776;50.518;6.732;2023-03-23T12:12:06;95607.34;;;13.32;95.90
74346;BME280;62776;50.518;6.732;2023-03-23T12:22:01;95598.22;;;13.44;98.52
74346;BME280;62776;50.518;6.732;2023-03-23T12:25:43;95611.13;;;13.48;96.09
74346;BME280;62776;50.518;6.732;2023-03-23T12:28:42;95609.44;;;13.46;93.54
74346;BME280;62776;50.518;6.732;2023-03-23T12:35:05;95618.78;;;13.53;96.01
74346;BME280;62776;50.518;6.732;2023-03-23T12:41:17;95608.72;;;13.66;94.83
74346;BME280;62776;50.518;6.732;2023-03-23T12:44:13;95603.50;;;13.66;93.75
74346;BME280;62776;50.518;6.732;2023-03-23T12:50:24;95597.59;;;13.84;93.16
74346;BME280;62776;50.518;6.732;2023-03-23T12:53:22;95600.13;;;13.85;92.30
74346;BME280;62776;50.518;6.732;2023-03-23T13:02:29;95610.84;;;14.01;92.41
74346;BME280;62776;50.518;6.732;2023-03-23T13:08:20;95616.44;;;14.13;90.67
74346;BME280;62776;50.518;6.732;2023-03-23T13:11:16;95614.63;;;14.15;90.01
74346;BME280;62776;50.518;6.732;2023-03-23T13:26:08;95607.06;;;13.86;91.58
74346;BME280;62776;50.518;6.732;2023-03-23T13:29:01;95609.97;;;13.79;93.60
74346;BME280;62776;50.518;6.732;2023-03-23T13:32:11;95602.81;;;13.60;93.52
74346;BME280;62776;50.518;6.732;2023-03-23T13:35:03;95608.00;;;13.62;96.23
74346;BME280;62776;50.518;6.732;2023-03-23T13:37:52;95599.59;;;13.54;97.86
74346;BME280;62776;50.518;6.732;2023-03-23T13:40:43;95608.81;;;13.63;97.39
74346;BME280;62776;50.518;6.732;2023-03-23T13:43:37;95605.53;;;13.81;95.68
74346;BME280;62776;50.518;6.732;2023-03-23T13:46:29;95602.09;;;14.02;95.22
74346;BME280;62776;50.518;6.732;2023-03-23T13:49:20;95593.94;;;14.31;94.24
74346;BME280;62776;50.518;6.732;2023-03-23T13:52:17;95587.91;;;14.52;90.23
74346;BME280;62776;50.518;6.732;2023-03-23T13:58:27;95597.88;;;14.43;88.64
74346;BME280;62776;50.518;6.732;2023-03-23T14:01:31;95593.63;;;14.40;88.54
74346;BME280;62776;50.518;6.732;2023-03-23T14:04:32;95602.63;;;14.33;87.10
74346;BME280;62776;50.518;6.732;2023-03-23T14:07:21;95612.94;;;14.14;88.14
74346;BME280;62776;50.518;6.732;2023-03-23T14:10:16;95602.22;;;13.99;90.21
74346;BME280;62776;50.518;6.732;2023-03-23T14:13:24;95589.34;;;13.94;91.09
74346;BME280;62776;50.518;6.732;2023-03-23T14:16:38;95588.94;;;13.82;93.43
74346;BME280;62776;50.518;6.732;2023-03-23T14:19:28;95591.88;;;13.96;92.40
74346;BME280;62776;50.518;6.732;2023-03-23T14:22:19;95594.25;;;13.57;92.81
74346;BME280;62776;50.518;6.732;2023-03-23T14:25:17;95595.44;;;13.72;93.88
74346;BME280;62776;50.518;6.732;2023-03-23T14:28:05;95591.81;;;13.76;93.88
74346;BME280;62776;50.518;6.732;2023-03-23T14:31:03;95603.38;;;13.69;92.35
74346;BME280;62776;50.518;6.732;2023-03-23T14:33:53;95600.09;;;13.64;92.95
74346;BME280;62776;50.518;6.732;2023-03-23T14:36:46;95594.56;;;13.71;92.83
74346;BME280;62776;50.518;6.732;2023-03-23T14:39:33;95592.94;;;13.92;91.39
74346;BME280;62776;50.518;6.732;2023-03-23T14:42:28;95597.28;;;13.91;91.45
74346;BME280;62776;50.518;6.732;2023-03-23T14:45:19;95611.03;;;13.96;90.65
74346;BME280;62776;50.518;6.732;2023-03-23T14:48:08;95599.91;;;14.13;90.21
74346;BME280;62776;50.518;6.732;2023-03-23T14:51:03;95610.81;;;14.24;88.13
74346;BME280;62776;50.518;6.732;2023-03-23T14:53:53;95602.53;;;14.56;84.88
74346;BME280;62776;50.518;6.732;2023-03-23T14:56:42;95610.03;;;14.44;85.68
74346;BME280;62776;50.518;6.732;2023-03-23T14:59:31;95619.88;;;14.37;87.89
74346;BME280;62776;50.518;6.732;2023-03-23T15:02:30;95617.16;;;14.40;86.80
74346;BME280;62776;50.518;6.732;2023-03-23T15:05:22;95616.38;;;14.80;86.57
74346;BME280;62776;50.518;6.732;2023-03-23T15:08:32;95596.81;;;15.09;80.51
74346;BME280;62776;50.518;6.732;2023-03-23T15:11:22;95597.59;;;14.70;79.73
74346;BME280;62776;50.518;6.732;2023-03-23T15:14:18;95580.97;;;14.51;81.76
74346;BME280;62776;50.518;6.732;2023-03-23T15:17:22;95570.97;;;14.61;79.79
74346;BME280;62776;50.518;6.732;2023-03-23T15:20:32;95554.22;;;14.65;78.53
74346;BME280;62776;50.518;6.732;2023-03-23T15:23:26;95551.53;;;14.46;79.74
74346;BME280;62776;50.518;6.732;2023-03-23T15:29:19;95542.50;;;14.33;79.91
74346;BME280;62776;50.518;6.732;2023-03-23T15:32:10;95524.66;;;14.21;78.33
74346;BME280;62776;50.518;6.732;2023-03-23T15:34:57;95534.53;;;14.14;77.41
74346;BME280;62776;50.518;6.732;2023-03-23T15:37:57;95537.44;;;14.07;81.09
74346;BME280;62776;50.518;6.732;2023-03-23T15:40:44;95539.06;;;14.09;78.60
74346;BME280;62776;50.518;6.732;2023-03-23T15:43:48;95546.09;;;14.09;79.25
74346;BME280;62776;50.518;6.732;2023-03-23T15:46:49;95551.56;;;14.03;79.27
74346;BME280;62776;50.518;6.732;2023-03-23T15:49:58;95542.53;;;14.10;79.94
74346;BME280;62776;50.518;6.732;2023-03-23T15:52:46;95545.22;;;14.08;78.22
74346;BME280;62776;50.518;6.732;2023-03-23T15:55:41;95539.38;;;14.02;77.85
74346;BME280;62776;50.518;6.732;2023-03-23T15:58:37;95543.28;;;13.92;78.10
74346;BME280;62776;50.518;6.732;2023-03-23T16:01:36;95538.06;;;13.92;79.09
74346;BME280;62776;50.518;6.732;2023-03-23T16:04:35;95540.38;;;13.99;79.36
74346;BME280;62776;50.518;6.732;2023-03-23T16:07:24;95530.66;;;14.03;80.09
74346;BME280;62776;50.518;6.732;2023-03-23T16:10:18;95517.50;;;14.04;80.34
74346;BME280;62776;50.518;6.732;2023-03-23T16:13:04;95510.13;;;13.94;79.80
74346;BME280;62776;50.518;6.732;2023-03-23T16:16:00;95519.22;;;13.84;79.72
74346;BME280;62776;50.518;6.732;2023-03-23T16:18:50;95518.50;;;13.80;81.75
74346;BME280;62776;50.518;6.732;2023-03-23T16:21:36;95517.84;;;13.75;81.97
74346;BME280;62776;50.518;6.732;2023-03-23T16:24:26;95526.09;;;13.65;82.50
74346;BME280;62776;50.518;6.732;2023-03-23T16:27:14;95530.63;;;13.59;83.63
74346;BME280;62776;50.518;6.732;2023-03-23T16:30:00;95529.03;;;13.55;84.31
74346;BME280;62776;50.518;6.732;2023-03-23T16:32:54;95536.66;;;13.38;84.43
74346;BME280;62776;50.518;6.732;2023-03-23T16:35:47;95540.97;;;13.39;85.16
74346;BME280;62776;50.518;6.732;2023-03-23T16:38:35;95545.44;;;13.36;85.26